sensor_id;sensor_type;location;lat;lon;timestamp;P1;durP1;ratioP1;P2;durP2;ratioP2
2656;SDS011;1338;48.176;11.792;2024-03-02T00:01:07;10.60;;;9.60;;
2656;SDS011;1338;48.176;11.792;2024-03-02T00:03:37;10.33;;;8.80;;
2656;SDS011;1338;48.176;11.792;2024-03-02T00:06:06;10.33;;;9.23;;
2656;SDS011;1338;48.176;11.792;2024-03-02T00:08:35;12.07;;;10.00;;
2656;SDS011;1338;48.176;11.792;2024-03-02T00:11:03;10.90;;;9.80;;
2656;SDS011;1338;48.176;11.792;2024-03-02T00:13:31;12.33;;;10.43;;
2656;SDS011;1338;48.176;11.792;2024-03-02T00:16:03;12.30;;;11.10;;
2656;SDS011;1338;48.176;11.792;2024-03-02T00:18:33;12.97;;;10.80;;
2656;SDS011;1338;48.176;11.792;2024-03-02T00:21:03;11.93;;;10.13;;
2656;SDS011;1338;48.176;11.792;2024-03-02T00:23:35;11.33;;;10.10;;
2656;SDS011;1338;48.176;11.792;2024-03-02T00:26:05;11.70;;;10.07;;
2656;SDS011;1338;48.176;11.792;2024-03-02T00:28:35;17.07;;;11.77;;
2656;SDS011;1338;48.176;11.792;2024-03-02T00:31:06;13.87;;;11.00;;
2656;SDS011;1338;48.176;11.792;2024-03-02T00:33:36;10.90;;;9.70;;
2656;SDS011;1338;48.176;11.792;2024-03-02T00:36:07;12.80;;;10.83;;
2656;SDS011;1338;48.176;11.792;2024-03-02T00:38:40;12.23;;;9.87;;
2656;SDS011;1338;48.176;11.792;2024-03-02T00:41:15;12.00;;;10.10;;
2656;SDS011;1338;48.176;11.792;2024-03-02T00:43:47;10.90;;;9.37;;
2656;SDS011;1338;48.176;11.792;2024-03-02T00:46:20;11.07;;;9.97;;
2656;SDS011;1338;48.176;11.792;2024-03-02T00:48:53;10.80;;;9.40;;
2656;SDS011;1338;48.176;11.792;2024-03-02T00:51:23;11.87;;;9.43;;
2656;SDS011;1338;48.176;11.792;2024-03-02T00:53:54;11.97;;;10.57;;
2656;SDS011;1338;48.176;11.792;2024-03-02T00:56:23;11.90;;;10.70;;
2656;SDS011;1338;48.176;11.792;2024-03-02T00:58:52;11.40;;;9.70;;
2656;SDS011;1338;48.176;11.792;2024-03-02T01:01:22;10.60;;;9.60;;
2656;SDS011;1338;48.176;11.792;2024-03-02T01:03:50;11.53;;;10.27;;
2656;SDS011;1338;48.176;11.792;2024-03-02T01:06:19;12.17;;;10.03;;
2656;SDS011;1338;48.176;11.792;2024-03-02T01:08:49;9.40;;;8.50;;
2656;SDS011;1338;48.176;11.792;2024-03-02T01:11:19;11.67;;;9.63;;
2656;SDS011;1338;48.176;11.792;2024-03-02T01:13:49;11.87;;;10.10;;
2656;SDS011;1338;48.176;11.792;2024-03-02T01:16:18;10.57;;;9.17;;
2656;SDS011;1338;48.176;11.792;2024-03-02T01:18:47;10.63;;;9.43;;
2656;SDS011;1338;48.176;11.792;2024-03-02T01:21:16;11.33;;;10.13;;
2656;SDS011;1338;48.176;11.792;2024-03-02T01:23:44;10.37;;;9.37;;
2656;SDS011;1338;48.176;11.792;2024-03-02T01:26:12;10.17;;;8.93;;
2656;SDS011;1338;48.176;11.792;2024-03-02T01:28:41;11.13;;;9.40;;
2656;SDS011;1338;48.176;11.792;2024-03-02T01:31:09;14.53;;;9.90;;
2656;SDS011;1338;48.176;11.792;2024-03-02T01:33:37;12.77;;;10.80;;
2656;SDS011;1338;48.176;11.792;2024-03-02T01:36:07;11.27;;;9.30;;
2656;SDS011;1338;48.176;11.792;2024-03-02T01:38:37;13.10;;;9.20;;
2656;SDS011;1338;48.176;11.792;2024-03-02T01:41:05;10.60;;;9.10;;
2656;SDS011;1338;48.176;11.792;2024-03-02T01:43:34;10.60;;;9.07;;
2656;SDS011;1338;48.176;11.792;2024-03-02T01:46:06;9.97;;;9.00;;
2656;SDS011;1338;48.176;11.792;2024-03-02T01:48:35;10.77;;;9.23;;
2656;SDS011;1338;48.176;11.792;2024-03-02T01:51:03;10.60;;;9.50;;
2656;SDS011;1338;48.176;11.792;2024-03-02T01:53:34;11.90;;;9.77;;
2656;SDS011;1338;48.176;11.792;2024-03-02T01:56:02;11.87;;;9.40;;
2656;SDS011;1338;48.176;11.792;2024-03-02T01:58:31;13.13;;;9.47;;
2656;SDS011;1338;48.176;11.792;2024-03-02T02:00:59;11.77;;;10.00;;
2656;SDS011;1338;48.176;11.792;2024-03-02T02:03:27;11.23;;;9.47;;
2656;SDS011;1338;48.176;11.792;2024-03-02T02:05:56;11.57;;;9.63;;
2656;SDS011;1338;48.176;11.792;2024-03-02T02:08:24;11.40;;;10.20;;
2656;SDS011;1338;48.176;11.792;2024-03-02T02:10:54;12.83;;;10.57;;
2656;SDS011;1338;48.176;11.792;2024-03-02T02:13:22;11.20;;;9.83;;
2656;SDS011;1338;48.176;11.792;2024-03-02T02:15:50;10.80;;;8.93;;
2656;SDS011;1338;48.176;11.792;2024-03-02T02:18:19;13.70;;;11.13;;
2656;SDS011;1338;48.176;11.792;2024-03-02T02:20:48;10.83;;;9.70;;
2656;SDS011;1338;48.176;11.792;2024-03-02T02:23:17;11.90;;;9.00;;
2656;SDS011;1338;48.176;11.792;2024-03-02T02:25:45;13.20;;;10.80;;
2656;SDS011;1338;48.176;11.792;2024-03-02T02:28:13;11.07;;;9.80;;
2656;SDS011;1338;48.176;11.792;2024-03-02T02:30:41;14.57;;;11.57;;
2656;SDS011;1338;48.176;11.792;2024-03-02T02:33:10;13.07;;;10.90;;
2656;SDS011;1338;48.176;11.792;2024-03-02T02:35:38;13.17;;;11.67;;
2656;SDS011;1338;48.176;11.792;2024-03-02T02:38:06;13.67;;;11.30;;
2656;SDS011;1338;48.176;11.792;2024-03-02T02:40:35;12.13;;;9.70;;
2656;SDS011;1338;48.176;11.792;2024-03-02T02:43:04;14.80;;;11.83;;
2656;SDS011;1338;48.176;11.792;2024-03-02T02:45:33;12.97;;;10.90;;
2656;SDS011;1338;48.176;11.792;2024-03-02T02:48:01;13.20;;;10.53;;
2656;SDS011;1338;48.176;11.792;2024-03-02T02:50:30;11.53;;;9.70;;
2656;SDS011;1338;48.176;11.792;2024-03-02T02:52:58;13.47;;;11.43;;
2656;SDS011;1338;48.176;11.792;2024-03-02T02:55:26;14.23;;;11.57;;
2656;SDS011;1338;48.176;11.792;2024-03-02T02:57:55;14.40;;;12.17;;
2656;SDS011;1338;48.176;11.792;2024-03-02T03:00:23;13.10;;;10.87;;
2656;SDS011;1338;48.176;11.792;2024-03-02T03:02:52;16.67;;;12.10;;
2656;SDS011;1338;48.176;11.792;2024-03-02T03:05:20;13.63;;;12.13;;
2656;SDS011;1338;48.176;11.792;2024-03-02T03:07:48;13.17;;;11.50;;
2656;SDS011;1338;48.176;11.792;2024-03-02T03:10:17;13.80;;;12.20;;
2656;SDS011;1338;48.176;11.792;2024-03-02T03:12:48;16.10;;;12.40;;
2656;SDS011;1338;48.176;11.792;2024-03-02T03:15:18;14.67;;;12.23;;
2656;SDS011;1338;48.176;11.792;2024-03-02T03:17:46;17.47;;;13.60;;
2656;SDS011;1338;48.176;11.792;2024-03-02T03:20:14;15.40;;;13.17;;
2656;SDS011;1338;48.176;11.792;2024-03-02T03:22:43;13.97;;;12.13;;
2656;SDS011;1338;48.176;11.792;2024-03-02T03:25:11;17.70;;;13.17;;
2656;SDS011;1338;48.176;11.792;2024-03-02T03:27:39;12.53;;;11.13;;
2656;SDS011;1338;48.176;11.792;2024-03-02T03:30:08;12.20;;;10.30;;
2656;SDS011;1338;48.176;11.792;2024-03-02T03:32:39;16.37;;;13.70;;
2656;SDS011;1338;48.176;11.792;2024-03-02T03:35:07;17.50;;;14.00;;
2656;SDS011;1338;48.176;11.792;2024-03-02T03:37:36;16.73;;;14.30;;
2656;SDS011;1338;48.176;11.792;2024-03-02T03:40:05;17.80;;;13.90;;
2656;SDS011;1338;48.176;11.792;2024-03-02T03:42:37;17.97;;;15.27;;
2656;SDS011;1338;48.176;11.792;2024-03-02T03:45:06;20.30;;;15.07;;
2656;SDS011;1338;48.176;11.792;2024-03-02T03:47:35;19.87;;;16.20;;
2656;SDS011;1338;48.176;11.792;2024-03-02T03:50:07;16.10;;;13.93;;
2656;SDS011;1338;48.176;11.792;2024-03-02T03:52:35;15.57;;;13.67;;
2656;SDS011;1338;48.176;11.792;2024-03-02T03:55:04;19.13;;;15.03;;
2656;SDS011;1338;48.176;11.792;2024-03-02T03:57:33;16.87;;;14.00;;
2656;SDS011;1338;48.176;11.792;2024-03-02T04:00:01;17.07;;;14.43;;
2656;SDS011;1338;48.176;11.792;2024-03-02T04:02:37;15.57;;;13.00;;
2656;SDS011;1338;48.176;11.792;2024-03-02T04:05:08;19.27;;;15.17;;
2656;SDS011;1338;48.176;11.792;2024-03-02T04:07:38;16.73;;;14.37;;
2656;SDS011;1338;48.176;11.792;2024-03-02T04:10:07;16.57;;;14.87;;
2656;SDS011;1338;48.176;11.792;2024-03-02T04:12:39;17.43;;;12.90;;
2656;SDS011;1338;48.176;11.792;2024-03-02T04:15:07;15.20;;;13.07;;
2656;SDS011;1338;48.176;11.792;2024-03-02T04:17:36;15.30;;;12.73;;
2656;SDS011;1338;48.176;11.792;2024-03-02T04:20:05;16.00;;;13.80;;
2656;SDS011;1338;48.176;11.792;2024-03-02T04:22:35;18.40;;;13.70;;
2656;SDS011;1338;48.176;11.792;2024-03-02T04:25:04;17.63;;;13.83;;
2656;SDS011;1338;48.176;11.792;2024-03-02T04:27:34;17.37;;;13.97;;
2656;SDS011;1338;48.176;11.792;2024-03-02T04:30:03;20.20;;;15.20;;
2656;SDS011;1338;48.176;11.792;2024-03-02T04:32:33;18.67;;;15.43;;
2656;SDS011;1338;48.176;11.792;2024-03-02T04:35:03;17.27;;;15.07;;
2656;SDS011;1338;48.176;11.792;2024-03-02T04:37:34;17.90;;;15.13;;
2656;SDS011;1338;48.176;11.792;2024-03-02T04:40:03;19.60;;;15.23;;
2656;SDS011;1338;48.176;11.792;2024-03-02T04:42:34;19.60;;;16.13;;
2656;SDS011;1338;48.176;11.792;2024-03-02T04:45:03;17.13;;;15.33;;
2656;SDS011;1338;48.176;11.792;2024-03-02T04:47:32;20.40;;;16.23;;
2656;SDS011;1338;48.176;11.792;2024-03-02T04:50:01;21.37;;;15.83;;
2656;SDS011;1338;48.176;11.792;2024-03-02T04:52:29;18.90;;;16.00;;
2656;SDS011;1338;48.176;11.792;2024-03-02T04:54:59;22.30;;;15.80;;
2656;SDS011;1338;48.176;11.792;2024-03-02T04:58:12;19.90;;;16.03;;
2656;SDS011;1338;48.176;11.792;2024-03-02T05:00:40;18.23;;;14.87;;
2656;SDS011;1338;48.176;11.792;2024-03-02T05:03:09;19.30;;;15.60;;
2656;SDS011;1338;48.176;11.792;2024-03-02T05:05:38;19.30;;;15.37;;
2656;SDS011;1338;48.176;11.792;2024-03-02T05:08:06;18.63;;;15.17;;
2656;SDS011;1338;48.176;11.792;2024-03-02T05:10:35;19.30;;;15.70;;
2656;SDS011;1338;48.176;11.792;2024-03-02T05:13:04;17.13;;;15.30;;
2656;SDS011;1338;48.176;11.792;2024-03-02T05:15:32;19.53;;;14.57;;
2656;SDS011;1338;48.176;11.792;2024-03-02T05:18:00;20.57;;;15.33;;
2656;SDS011;1338;48.176;11.792;2024-03-02T05:20:31;20.40;;;14.63;;
2656;SDS011;1338;48.176;11.792;2024-03-02T05:23:00;20.03;;;14.93;;
2656;SDS011;1338;48.176;11.792;2024-03-02T05:25:29;21.63;;;16.07;;
2656;SDS011;1338;48.176;11.792;2024-03-02T05:27:59;19.77;;;14.80;;
2656;SDS011;1338;48.176;11.792;2024-03-02T05:30:27;17.57;;;15.20;;
2656;SDS011;1338;48.176;11.792;2024-03-02T05:32:56;20.10;;;15.97;;
2656;SDS011;1338;48.176;11.792;2024-03-02T05:35:24;20.60;;;15.73;;
2656;SDS011;1338;48.176;11.792;2024-03-02T05:37:53;19.93;;;17.00;;
2656;SDS011;1338;48.176;11.792;2024-03-02T05:40:21;20.57;;;16.00;;
2656;SDS011;1338;48.176;11.792;2024-03-02T05:42:50;19.93;;;15.40;;
2656;SDS011;1338;48.176;11.792;2024-03-02T05:45:19;18.07;;;16.17;;
2656;SDS011;1338;48.176;11.792;2024-03-02T05:47:48;22.50;;;18.13;;
2656;SDS011;1338;48.176;11.792;2024-03-02T05:50:16;20.30;;;17.07;;
2656;SDS011;1338;48.176;11.792;2024-03-02T05:52:46;18.80;;;16.40;;
2656;SDS011;1338;48.176;11.792;2024-03-02T05:55:15;20.00;;;15.60;;
2656;SDS011;1338;48.176;11.792;2024-03-02T05:57:43;21.23;;;16.53;;
2656;SDS011;1338;48.176;11.792;2024-03-02T06:00:27;22.80;;;16.30;;
2656;SDS011;1338;48.176;11.792;2024-03-02T06:02:58;21.53;;;17.40;;
2656;SDS011;1338;48.176;11.792;2024-03-02T06:05:26;20.53;;;17.10;;
2656;SDS011;1338;48.176;11.792;2024-03-02T06:07:55;21.80;;;17.87;;
2656;SDS011;1338;48.176;11.792;2024-03-02T06:10:23;19.93;;;15.80;;
2656;SDS011;1338;48.176;11.792;2024-03-02T06:12:52;21.40;;;15.90;;
2656;SDS011;1338;48.176;11.792;2024-03-02T06:15:20;19.60;;;16.27;;
2656;SDS011;1338;48.176;11.792;2024-03-02T06:17:50;21.23;;;15.87;;
2656;SDS011;1338;48.176;11.792;2024-03-02T06:20:19;24.43;;;17.73;;
2656;SDS011;1338;48.176;11.792;2024-03-02T06:22:48;22.73;;;16.10;;
2656;SDS011;1338;48.176;11.792;2024-03-02T06:25:16;21.07;;;17.60;;
2656;SDS011;1338;48.176;11.792;2024-03-02T06:27:44;21.23;;;17.47;;
2656;SDS011;1338;48.176;11.792;2024-03-02T06:30:16;19.97;;;17.40;;
2656;SDS011;1338;48.176;11.792;2024-03-02T06:32:44;19.20;;;16.47;;
2656;SDS011;1338;48.176;11.792;2024-03-02T06:35:14;21.00;;;17.40;;
2656;SDS011;1338;48.176;11.792;2024-03-02T06:37:42;25.60;;;17.77;;
2656;SDS011;1338;48.176;11.792;2024-03-02T06:40:11;23.33;;;19.20;;
2656;SDS011;1338;48.176;11.792;2024-03-02T06:42:39;21.67;;;16.60;;
2656;SDS011;1338;48.176;11.792;2024-03-02T06:45:08;20.57;;;15.33;;
2656;SDS011;1338;48.176;11.792;2024-03-02T06:47:36;17.90;;;16.00;;
2656;SDS011;1338;48.176;11.792;2024-03-02T06:50:05;20.43;;;15.97;;
2656;SDS011;1338;48.176;11.792;2024-03-02T06:52:35;19.57;;;15.47;;
2656;SDS011;1338;48.176;11.792;2024-03-02T06:55:04;20.20;;;15.83;;
2656;SDS011;1338;48.176;11.792;2024-03-02T06:57:33;19.80;;;16.83;;
2656;SDS011;1338;48.176;11.792;2024-03-02T07:00:01;18.77;;;15.40;;
2656;SDS011;1338;48.176;11.792;2024-03-02T07:02:32;20.00;;;16.20;;
2656;SDS011;1338;48.176;11.792;2024-03-02T07:05:00;26.47;;;19.00;;
2656;SDS011;1338;48.176;11.792;2024-03-02T07:07:29;25.70;;;20.40;;
2656;SDS011;1338;48.176;11.792;2024-03-02T07:09:59;24.27;;;19.00;;
2656;SDS011;1338;48.176;11.792;2024-03-02T07:12:28;25.17;;;19.03;;
2656;SDS011;1338;48.176;11.792;2024-03-02T07:14:58;25.57;;;19.53;;
2656;SDS011;1338;48.176;11.792;2024-03-02T07:17:43;25.70;;;20.40;;
2656;SDS011;1338;48.176;11.792;2024-03-02T07:20:11;26.23;;;18.90;;
2656;SDS011;1338;48.176;11.792;2024-03-02T07:22:40;26.70;;;21.80;;
2656;SDS011;1338;48.176;11.792;2024-03-02T07:25:12;23.40;;;20.43;;
2656;SDS011;1338;48.176;11.792;2024-03-02T07:27:43;24.27;;;18.97;;
2656;SDS011;1338;48.176;11.792;2024-03-02T07:30:13;22.07;;;19.40;;
2656;SDS011;1338;48.176;11.792;2024-03-02T07:32:43;26.83;;;20.30;;
2656;SDS011;1338;48.176;11.792;2024-03-02T07:35:12;28.77;;;21.40;;
2656;SDS011;1338;48.176;11.792;2024-03-02T07:37:42;26.27;;;20.40;;
2656;SDS011;1338;48.176;11.792;2024-03-02T07:40:12;24.63;;;20.10;;
2656;SDS011;1338;48.176;11.792;2024-03-02T07:42:40;29.50;;;21.87;;
2656;SDS011;1338;48.176;11.792;2024-03-02T07:45:09;23.87;;;19.93;;
2656;SDS011;1338;48.176;11.792;2024-03-02T07:47:37;26.10;;;20.40;;
2656;SDS011;1338;48.176;11.792;2024-03-02T07:50:06;26.70;;;20.63;;
2656;SDS011;1338;48.176;11.792;2024-03-02T07:52:35;20.23;;;15.87;;
2656;SDS011;1338;48.176;11.792;2024-03-02T07:55:04;18.47;;;14.63;;
2656;SDS011;1338;48.176;11.792;2024-03-02T07:57:34;29.85;;;23.40;;
2656;SDS011;1338;48.176;11.792;2024-03-02T08:00:03;29.50;;;20.93;;
2656;SDS011;1338;48.176;11.792;2024-03-02T08:02:37;24.17;;;20.33;;
2656;SDS011;1338;48.176;11.792;2024-03-02T08:05:05;24.67;;;19.97;;
2656;SDS011;1338;48.176;11.792;2024-03-02T08:07:35;26.07;;;19.67;;
2656;SDS011;1338;48.176;11.792;2024-03-02T08:10:04;26.10;;;20.87;;
2656;SDS011;1338;48.176;11.792;2024-03-02T08:12:35;23.60;;;20.43;;
2656;SDS011;1338;48.176;11.792;2024-03-02T08:15:04;26.00;;;19.77;;
2656;SDS011;1338;48.176;11.792;2024-03-02T08:17:33;20.47;;;17.13;;
2656;SDS011;1338;48.176;11.792;2024-03-02T08:20:04;27.10;;;22.50;;
2656;SDS011;1338;48.176;11.792;2024-03-02T08:22:34;24.27;;;17.73;;
2656;SDS011;1338;48.176;11.792;2024-03-02T08:25:03;23.53;;;18.93;;
2656;SDS011;1338;48.176;11.792;2024-03-02T08:27:32;24.50;;;19.77;;
2656;SDS011;1338;48.176;11.792;2024-03-02T08:30:03;24.70;;;19.00;;
2656;SDS011;1338;48.176;11.792;2024-03-02T08:32:35;27.93;;;20.10;;
2656;SDS011;1338;48.176;11.792;2024-03-02T08:35:04;19.17;;;15.90;;
2656;SDS011;1338;48.176;11.792;2024-03-02T08:37:33;29.77;;;20.57;;
2656;SDS011;1338;48.176;11.792;2024-03-02T08:40:01;26.37;;;19.67;;
2656;SDS011;1338;48.176;11.792;2024-03-02T08:42:35;22.03;;;16.17;;
2656;SDS011;1338;48.176;11.792;2024-03-02T08:45:04;23.70;;;17.40;;
2656;SDS011;1338;48.176;11.792;2024-03-02T08:47:35;24.37;;;19.87;;
2656;SDS011;1338;48.176;11.792;2024-03-02T08:50:04;30.90;;;20.93;;
2656;SDS011;1338;48.176;11.792;2024-03-02T08:52:33;25.30;;;18.17;;
2656;SDS011;1338;48.176;11.792;2024-03-02T08:55:02;28.90;;;20.20;;
2656;SDS011;1338;48.176;11.792;2024-03-02T08:57:31;29.80;;;21.93;;
2656;SDS011;1338;48.176;11.792;2024-03-02T09:00:01;24.13;;;18.23;;
2656;SDS011;1338;48.176;11.792;2024-03-02T09:02:29;27.93;;;17.90;;
2656;SDS011;1338;48.176;11.792;2024-03-02T09:04:58;25.90;;;19.73;;
2656;SDS011;1338;48.176;11.792;2024-03-02T09:07:26;24.17;;;17.90;;
2656;SDS011;1338;48.176;11.792;2024-03-02T09:09:54;24.80;;;18.90;;
2656;SDS011;1338;48.176;11.792;2024-03-02T09:12:23;27.60;;;20.30;;
2656;SDS011;1338;48.176;11.792;2024-03-02T09:14:51;25.30;;;18.43;;
2656;SDS011;1338;48.176;11.792;2024-03-02T09:17:21;21.27;;;15.90;;
2656;SDS011;1338;48.176;11.792;2024-03-02T09:19:50;28.93;;;19.10;;
2656;SDS011;1338;48.176;11.792;2024-03-02T09:22:19;25.30;;;18.17;;
2656;SDS011;1338;48.176;11.792;2024-03-02T09:24:47;20.87;;;16.00;;
2656;SDS011;1338;48.176;11.792;2024-03-02T09:27:16;20.20;;;15.73;;
2656;SDS011;1338;48.176;11.792;2024-03-02T09:29:44;19.90;;;15.20;;
2656;SDS011;1338;48.176;11.792;2024-03-02T09:32:13;22.27;;;17.10;;
2656;SDS011;1338;48.176;11.792;2024-03-02T09:34:43;26.67;;;18.53;;
2656;SDS011;1338;48.176;11.792;2024-03-02T09:37:12;21.87;;;17.87;;
2656;SDS011;1338;48.176;11.792;2024-03-02T09:39:40;22.13;;;17.03;;
2656;SDS011;1338;48.176;11.792;2024-03-02T09:42:12;24.47;;;16.97;;
2656;SDS011;1338;48.176;11.792;2024-03-02T09:44:41;22.27;;;16.17;;
2656;SDS011;1338;48.176;11.792;2024-03-02T09:47:10;21.50;;;16.40;;
2656;SDS011;1338;48.176;11.792;2024-03-02T09:49:38;22.93;;;17.30;;
2656;SDS011;1338;48.176;11.792;2024-03-02T09:52:09;22.03;;;16.27;;
2656;SDS011;1338;48.176;11.792;2024-03-02T09:54:38;22.77;;;16.20;;
2656;SDS011;1338;48.176;11.792;2024-03-02T09:57:06;25.23;;;16.20;;
2656;SDS011;1338;48.176;11.792;2024-03-02T09:59:36;19.57;;;14.70;;
2656;SDS011;1338;48.176;11.792;2024-03-02T10:02:05;28.77;;;19.10;;
2656;SDS011;1338;48.176;11.792;2024-03-02T10:04:34;24.53;;;15.33;;
2656;SDS011;1338;48.176;11.792;2024-03-02T10:07:11;24.20;;;17.43;;
2656;SDS011;1338;48.176;11.792;2024-03-02T10:09:41;24.50;;;17.00;;
2656;SDS011;1338;48.176;11.792;2024-03-02T10:12:12;28.77;;;18.80;;
2656;SDS011;1338;48.176;11.792;2024-03-02T10:14:42;22.87;;;16.90;;
2656;SDS011;1338;48.176;11.792;2024-03-02T10:17:11;24.90;;;16.50;;
2656;SDS011;1338;48.176;11.792;2024-03-02T10:19:41;20.57;;;15.40;;
2656;SDS011;1338;48.176;11.792;2024-03-02T10:22:11;29.20;;;18.77;;
2656;SDS011;1338;48.176;11.792;2024-03-02T10:24:40;27.60;;;19.73;;
2656;SDS011;1338;48.176;11.792;2024-03-02T10:27:15;25.10;;;17.03;;
2656;SDS011;1338;48.176;11.792;2024-03-02T10:29:45;22.87;;;15.93;;
2656;SDS011;1338;48.176;11.792;2024-03-02T10:32:14;26.60;;;18.73;;
2656;SDS011;1338;48.176;11.792;2024-03-02T10:34:44;21.13;;;16.50;;
2656;SDS011;1338;48.176;11.792;2024-03-02T10:37:15;25.70;;;16.30;;
2656;SDS011;1338;48.176;11.792;2024-03-02T10:39:45;24.53;;;16.93;;
2656;SDS011;1338;48.176;11.792;2024-03-02T10:42:14;20.70;;;16.67;;
2656;SDS011;1338;48.176;11.792;2024-03-02T10:44:44;22.87;;;17.47;;
2656;SDS011;1338;48.176;11.792;2024-03-02T10:47:12;25.30;;;17.57;;
2656;SDS011;1338;48.176;11.792;2024-03-02T10:49:43;22.10;;;16.77;;
2656;SDS011;1338;48.176;11.792;2024-03-02T10:52:16;24.07;;;18.00;;
2656;SDS011;1338;48.176;11.792;2024-03-02T10:54:44;23.77;;;17.43;;
2656;SDS011;1338;48.176;11.792;2024-03-02T10:57:13;26.90;;;18.50;;
2656;SDS011;1338;48.176;11.792;2024-03-02T10:59:45;24.27;;;17.57;;
2656;SDS011;1338;48.176;11.792;2024-03-02T11:02:19;24.20;;;18.60;;
2656;SDS011;1338;48.176;11.792;2024-03-02T11:04:50;22.70;;;16.23;;
2656;SDS011;1338;48.176;11.792;2024-03-02T11:07:24;20.33;;;16.83;;
2656;SDS011;1338;48.176;11.792;2024-03-02T11:09:56;23.67;;;16.43;;
2656;SDS011;1338;48.176;11.792;2024-03-02T11:12:28;17.73;;;13.00;;
2656;SDS011;1338;48.176;11.792;2024-03-02T11:14:59;22.20;;;16.90;;
2656;SDS011;1338;48.176;11.792;2024-03-02T11:17:29;22.60;;;16.17;;
2656;SDS011;1338;48.176;11.792;2024-03-02T11:19:58;19.63;;;15.97;;
2656;SDS011;1338;48.176;11.792;2024-03-02T11:22:29;21.00;;;14.40;;
2656;SDS011;1338;48.176;11.792;2024-03-02T11:24:58;21.67;;;15.57;;
2656;SDS011;1338;48.176;11.792;2024-03-02T11:33:23;19.30;;;14.33;;
2656;SDS011;1338;48.176;11.792;2024-03-02T11:35:57;17.57;;;14.33;;
2656;SDS011;1338;48.176;11.792;2024-03-02T11:38:31;18.30;;;13.30;;
2656;SDS011;1338;48.176;11.792;2024-03-02T11:41:01;16.63;;;13.57;;
2656;SDS011;1338;48.176;11.792;2024-03-02T11:43:30;20.17;;;14.53;;
2656;SDS011;1338;48.176;11.792;2024-03-02T11:46:00;21.00;;;15.97;;
2656;SDS011;1338;48.176;11.792;2024-03-02T11:48:34;17.20;;;13.60;;
2656;SDS011;1338;48.176;11.792;2024-03-02T11:51:04;16.47;;;13.47;;
2656;SDS011;1338;48.176;11.792;2024-03-02T11:53:34;17.30;;;12.87;;
2656;SDS011;1338;48.176;11.792;2024-03-02T11:56:06;19.53;;;14.90;;
2656;SDS011;1338;48.176;11.792;2024-03-02T11:58:38;15.93;;;13.77;;
2656;SDS011;1338;48.176;11.792;2024-03-02T12:01:08;15.17;;;13.30;;
2656;SDS011;1338;48.176;11.792;2024-03-02T12:03:37;17.03;;;14.40;;
2656;SDS011;1338;48.176;11.792;2024-03-02T12:06:06;18.90;;;14.30;;
2656;SDS011;1338;48.176;11.792;2024-03-02T12:08:36;14.60;;;12.10;;
2656;SDS011;1338;48.176;11.792;2024-03-02T12:11:05;13.93;;;11.90;;
2656;SDS011;1338;48.176;11.792;2024-03-02T12:13:34;15.20;;;12.03;;
2656;SDS011;1338;48.176;11.792;2024-03-02T12:16:02;15.57;;;13.90;;
2656;SDS011;1338;48.176;11.792;2024-03-02T12:18:31;15.67;;;12.10;;
2656;SDS011;1338;48.176;11.792;2024-03-02T12:21:00;20.00;;;13.77;;
2656;SDS011;1338;48.176;11.792;2024-03-02T12:23:30;16.87;;;13.07;;
2656;SDS011;1338;48.176;11.792;2024-03-02T12:26:00;14.53;;;12.00;;
2656;SDS011;1338;48.176;11.792;2024-03-02T12:28:28;17.07;;;13.50;;
2656;SDS011;1338;48.176;11.792;2024-03-02T12:30:58;15.00;;;11.70;;
2656;SDS011;1338;48.176;11.792;2024-03-02T12:33:26;18.30;;;15.37;;
2656;SDS011;1338;48.176;11.792;2024-03-02T12:35:56;18.43;;;14.33;;
2656;SDS011;1338;48.176;11.792;2024-03-02T12:38:25;17.80;;;13.97;;
2656;SDS011;1338;48.176;11.792;2024-03-02T12:40:53;17.90;;;14.30;;
2656;SDS011;1338;48.176;11.792;2024-03-02T12:43:23;22.07;;;15.70;;
2656;SDS011;1338;48.176;11.792;2024-03-02T12:45:52;20.17;;;16.60;;
2656;SDS011;1338;48.176;11.792;2024-03-02T12:48:23;19.30;;;15.30;;
2656;SDS011;1338;48.176;11.792;2024-03-02T12:50:51;26.83;;;21.80;;
2656;SDS011;1338;48.176;11.792;2024-03-02T12:53:21;23.73;;;17.13;;
2656;SDS011;1338;48.176;11.792;2024-03-02T12:55:49;22.00;;;17.27;;
2656;SDS011;1338;48.176;11.792;2024-03-02T12:58:18;23.37;;;18.60;;
2656;SDS011;1338;48.176;11.792;2024-03-02T13:00:49;22.50;;;18.63;;
2656;SDS011;1338;48.176;11.792;2024-03-02T13:03:18;24.97;;;18.20;;
2656;SDS011;1338;48.176;11.792;2024-03-02T13:05:49;24.70;;;18.73;;
2656;SDS011;1338;48.176;11.792;2024-03-02T13:08:17;26.67;;;20.37;;
2656;SDS011;1338;48.176;11.792;2024-03-02T13:10:46;24.30;;;17.80;;
2656;SDS011;1338;48.176;11.792;2024-03-02T13:13:15;19.80;;;15.63;;
2656;SDS011;1338;48.176;11.792;2024-03-02T13:15:44;23.20;;;17.27;;
2656;SDS011;1338;48.176;11.792;2024-03-02T13:18:14;24.80;;;16.37;;
2656;SDS011;1338;48.176;11.792;2024-03-02T13:20:42;20.40;;;17.23;;
2656;SDS011;1338;48.176;11.792;2024-03-02T13:23:10;18.97;;;14.87;;
2656;SDS011;1338;48.176;11.792;2024-03-02T13:25:41;23.87;;;16.10;;
2656;SDS011;1338;48.176;11.792;2024-03-02T13:28:09;21.63;;;16.97;;
2656;SDS011;1338;48.176;11.792;2024-03-02T13:30:38;23.10;;;18.27;;
2656;SDS011;1338;48.176;11.792;2024-03-02T13:33:07;20.93;;;16.77;;
2656;SDS011;1338;48.176;11.792;2024-03-02T13:35:37;22.43;;;17.50;;
2656;SDS011;1338;48.176;11.792;2024-03-02T13:38:05;21.80;;;16.83;;
2656;SDS011;1338;48.176;11.792;2024-03-02T13:40:33;20.10;;;15.17;;
2656;SDS011;1338;48.176;11.792;2024-03-02T13:43:02;28.40;;;19.10;;
2656;SDS011;1338;48.176;11.792;2024-03-02T13:45:31;23.47;;;18.03;;
2656;SDS011;1338;48.176;11.792;2024-03-02T13:47:59;21.10;;;17.57;;
2656;SDS011;1338;48.176;11.792;2024-03-02T13:50:30;21.17;;;16.10;;
2656;SDS011;1338;48.176;11.792;2024-03-02T13:52:59;18.80;;;15.50;;
2656;SDS011;1338;48.176;11.792;2024-03-02T13:55:29;17.63;;;14.33;;
2656;SDS011;1338;48.176;11.792;2024-03-02T13:57:58;19.40;;;15.53;;
2656;SDS011;1338;48.176;11.792;2024-03-02T14:00:26;17.27;;;14.20;;
2656;SDS011;1338;48.176;11.792;2024-03-02T14:02:55;15.80;;;14.10;;
2656;SDS011;1338;48.176;11.792;2024-03-02T14:05:24;17.77;;;13.60;;
2656;SDS011;1338;48.176;11.792;2024-03-02T14:07:52;16.37;;;14.47;;
2656;SDS011;1338;48.176;11.792;2024-03-02T14:10:22;19.20;;;14.10;;
2656;SDS011;1338;48.176;11.792;2024-03-02T14:12:50;15.37;;;12.50;;
2656;SDS011;1338;48.176;11.792;2024-03-02T14:15:18;18.57;;;13.93;;
2656;SDS011;1338;48.176;11.792;2024-03-02T14:17:47;15.30;;;13.70;;
2656;SDS011;1338;48.176;11.792;2024-03-02T14:20:16;16.80;;;13.50;;
2656;SDS011;1338;48.176;11.792;2024-03-02T14:22:48;15.30;;;13.50;;
2656;SDS011;1338;48.176;11.792;2024-03-02T14:25:17;18.70;;;14.17;;
2656;SDS011;1338;48.176;11.792;2024-03-02T14:27:47;15.60;;;13.50;;
2656;SDS011;1338;48.176;11.792;2024-03-02T14:30:35;18.03;;;13.27;;
2656;SDS011;1338;48.176;11.792;2024-03-02T14:33:04;18.20;;;15.30;;
2656;SDS011;1338;48.176;11.792;2024-03-02T14:35:32;16.37;;;13.20;;
2656;SDS011;1338;48.176;11.792;2024-03-02T14:38:00;16.37;;;13.97;;
2656;SDS011;1338;48.176;11.792;2024-03-02T14:40:29;16.43;;;12.73;;
2656;SDS011;1338;48.176;11.792;2024-03-02T14:42:59;17.90;;;15.90;;
2656;SDS011;1338;48.176;11.792;2024-03-02T14:45:27;18.30;;;14.67;;
2656;SDS011;1338;48.176;11.792;2024-03-02T14:47:56;15.23;;;13.60;;
2656;SDS011;1338;48.176;11.792;2024-03-02T14:50:26;17.57;;;13.40;;
2656;SDS011;1338;48.176;11.792;2024-03-02T14:52:55;17.20;;;15.53;;
2656;SDS011;1338;48.176;11.792;2024-03-02T14:55:25;18.20;;;14.80;;